Dease Lake, Canada
Current Conditions -  °F | °C
As of 11:00 PM on Saturday 25 Oct 2014 (Local Time) from CYDL Reporting Station
Clear Clear  
Wind Chill: 27°   Ceiling: Unl
Heat Index: 27°   Visibility: 9mi
Dew Point: 25°   Wind: 2mph
Humidity: 93%   Direction: NA
Pressure: 29.68"   Gusts: NA
Location:  58.44°N, 129.99°W
Report Text: CYDL 260600Z AUTO VRB02KT 9SM CLR M03/M04 A2968 RMK SLP079
Loading
Personal Weather Stations






























Interactive Weather Map
Tropical Storm Tracking
New forecast layout! Learn more

10-Day Weather Forecast

Advertisements
Track Severe Weather on mobile